Time;durP1;ratioP1;P1;durP2;ratioP2;P2;SDS_P1;SDS_P2;PMS_P1;PMS_P2;Temp;Humidity;BMP_temperature;BMP_pressure;BME280_temperature;BME280_humidity;BME280_pressure;Samples;Min_cycle;Max_cycle;Signal;HPM_P1;HPM_P2
2021/11/18 00:00:20;;;;;;;22.70;3.75;;;7.00;99.90;;;;;;5147402;27;20101;-63
2021/11/18 00:02:46;;;;;;;16.15;4.10;;;6.90;99.90;;;;;;5147155;27;20054;-63
2021/11/18 00:05:13;;;;;;;19.92;4.13;;;6.90;99.90;;;;;;5128044;27;20133;-63
2021/11/18 00:07:44;;;;;;;21.55;4.57;;;7.00;99.90;;;;;;5127754;27;20054;-63
2021/11/18 00:10:12;;;;;;;19.55;3.70;;;7.00;99.90;;;;;;5145703;27;20050;-63
2021/11/18 00:12:38;;;;;;;15.63;3.40;;;6.90;99.90;;;;;;5127206;27;20039;-63
2021/11/18 00:15:05;;;;;;;19.92;4.70;;;6.90;99.90;;;;;;5145541;27;20042;-63
2021/11/18 00:17:32;;;;;;;13.73;3.80;;;6.90;99.90;;;;;;5127664;27;20043;-63
2021/11/18 00:19:57;;;;;;;18.80;3.85;;;6.90;99.90;;;;;;5127756;27;20039;-63
2021/11/18 00:22:23;;;;;;;22.75;3.85;;;6.90;99.90;;;;;;5145756;27;20039;-63
2021/11/18 00:24:49;;;;;;;13.35;3.60;;;7.10;99.90;;;;;;5144928;27;20053;-62
2021/11/18 00:27:15;;;;;;;20.45;4.65;;;7.10;99.90;;;;;;5139419;27;20550;-62
2021/11/18 00:29:40;;;;;;;15.45;3.67;;;7.10;99.90;;;;;;5127876;27;20046;-63
2021/11/18 00:32:06;;;;;;;17.08;3.70;;;7.10;99.90;;;;;;5145339;27;20116;-62
2021/11/18 00:34:32;;;;;;;19.52;4.82;;;7.20;99.90;;;;;;5127021;27;20051;-63
2021/11/18 00:36:58;;;;;;;16.38;3.72;;;7.20;99.90;;;;;;5127893;27;20042;-63
2021/11/18 00:39:23;;;;;;;17.40;4.35;;;7.20;99.90;;;;;;5145187;27;20039;-63
2021/11/18 00:41:49;;;;;;;13.90;3.55;;;7.20;99.90;;;;;;5144935;27;20073;-63
2021/11/18 00:44:15;;;;;;;17.30;4.55;;;7.20;99.90;;;;;;5125893;28;20032;-63
2021/11/18 00:46:40;;;;;;;21.55;4.10;;;7.10;99.90;;;;;;5126962;28;20087;-63
2021/11/18 00:49:09;;;;;;;20.98;4.13;;;7.10;99.90;;;;;;5145256;28;20043;-63
2021/11/18 00:51:35;;;;;;;21.45;4.50;;;7.20;99.90;;;;;;5126596;28;20059;-63
2021/11/18 00:54:04;;;;;;;15.40;3.90;;;7.20;99.90;;;;;;5145557;28;20523;-63
2021/11/18 00:56:30;;;;;;;22.10;4.60;;;7.20;99.90;;;;;;5145587;28;20436;-63
2021/11/18 00:58:57;;;;;;;12.82;3.58;;;7.30;99.90;;;;;;5126624;28;20047;-63
2021/11/18 01:01:29;;;;;;;19.50;4.18;;;7.30;99.90;;;;;;5126807;28;20048;-63
2021/11/18 01:03:56;;;;;;;15.70;3.70;;;7.20;99.90;;;;;;5145099;28;20036;-63
2021/11/18 01:06:22;;;;;;;18.40;4.32;;;7.30;99.90;;;;;;5126894;28;20583;-63
2021/11/18 01:08:48;;;;;;;15.98;3.42;;;7.30;99.90;;;;;;5144856;28;20036;-63
2021/11/18 01:11:23;;;;;;;16.67;3.97;;;7.30;99.90;;;;;;5126500;28;20483;-63
2021/11/18 01:13:52;;;;;;;15.98;4.75;;;7.30;99.90;;;;;;5127213;28;20503;-63
2021/11/18 01:16:21;;;;;;;18.05;5.03;;;7.30;99.90;;;;;;5126291;28;20043;-63
2021/11/18 01:18:47;;;;;;;18.70;3.97;;;7.40;99.90;;;;;;5127231;28;20487;-63
2021/11/18 01:21:14;;;;;;;16.73;4.38;;;7.40;99.90;;;;;;5127804;28;20039;-63
2021/11/18 01:23:40;;;;;;;19.40;5.30;;;7.40;99.90;;;;;;5126741;28;20135;-63
2021/11/18 01:26:08;;;;;;;18.45;4.55;;;7.50;99.90;;;;;;5127545;28;20463;-63
2021/11/18 01:28:34;;;;;;;16.55;5.03;;;7.60;99.90;;;;;;5119777;28;20056;-63
2021/11/18 01:31:00;;;;;;;23.25;5.97;;;7.60;99.90;;;;;;5106955;28;20039;-63
2021/11/18 01:33:26;;;;;;;19.95;5.18;;;7.70;99.90;;;;;;5126283;28;20193;-63
2021/11/18 01:35:52;;;;;;;18.80;4.72;;;7.70;99.90;;;;;;5126014;28;20043;-63
2021/11/18 01:38:19;;;;;;;19.15;4.45;;;7.70;99.90;;;;;;5144594;28;20039;-63
2021/11/18 01:40:56;;;;;;;21.23;5.35;;;7.70;99.90;;;;;;5144602;28;20554;-63
2021/11/18 01:43:25;;;;;;;21.95;6.13;;;7.80;99.90;;;;;;5143720;27;20093;-63
2021/11/18 01:45:51;;;;;;;16.90;4.75;;;7.80;99.90;;;;;;5130494;27;20094;-63
2021/11/18 01:48:18;;;;;;;26.23;5.40;;;7.90;99.90;;;;;;5148560;27;20391;-63
2021/11/18 01:50:47;;;;;;;18.95;4.50;;;7.80;99.90;;;;;;5129945;27;20498;-63
2021/11/18 01:53:16;;;;;;;21.63;5.00;;;7.90;99.90;;;;;;5129915;27;20087;-63
2021/11/18 01:55:43;;;;;;;19.30;5.18;;;7.90;99.90;;;;;;5129844;27;20682;-63
2021/11/18 01:58:10;;;;;;;23.77;4.93;;;7.90;99.90;;;;;;5129963;27;20051;-63
2021/11/18 02:00:41;;;;;;;20.25;5.50;;;7.90;99.90;;;;;;5148295;27;20218;-63
2021/11/18 02:03:07;;;;;;;15.73;4.53;;;8.00;99.90;;;;;;5148057;27;20436;-63
2021/11/18 02:05:37;;;;;;;19.33;5.20;;;8.00;99.90;;;;;;5149167;27;20043;-63
2021/11/18 02:08:05;;;;;;;18.83;4.78;;;8.00;99.90;;;;;;5149168;27;20039;-63
2021/11/18 02:10:44;;;;;;;22.20;5.93;;;8.00;99.90;;;;;;5147915;27;20054;-63
2021/11/18 02:13:14;;;;;;;23.38;6.60;;;8.00;99.90;;;;;;5148915;27;20118;-63
2021/11/18 02:15:49;;;;;;;20.48;4.72;;;8.00;99.90;;;;;;5130135;27;20510;-63
2021/11/18 02:18:21;;;;;;;25.40;5.35;;;7.90;99.90;;;;;;5148030;27;20039;-63
2021/11/18 02:20:49;;;;;;;17.67;5.20;;;7.90;99.90;;;;;;5147920;27;20043;-63
2021/11/18 02:23:18;;;;;;;20.85;6.13;;;7.90;99.90;;;;;;5129366;27;20053;-63
2021/11/18 02:25:50;;;;;;;24.08;5.13;;;8.00;99.90;;;;;;5129647;27;20054;-63
2021/11/18 02:28:17;;;;;;;24.90;7.07;;;7.90;99.90;;;;;;5124105;28;20046;-63
2021/11/18 02:30:42;;;;;;;18.58;5.93;;;7.90;99.90;;;;;;5146784;27;20102;-63
2021/11/18 02:33:08;;;;;;;22.70;6.72;;;7.90;99.90;;;;;;5112633;27;20042;-62
2021/11/18 02:35:36;;;;;;;22.50;5.50;;;7.90;99.90;;;;;;5129902;27;20043;-63
2021/11/18 02:38:03;;;;;;;22.05;6.38;;;8.00;99.90;;;;;;5129286;27;20043;-62
2021/11/18 02:40:29;;;;;;;19.13;5.82;;;8.00;99.90;;;;;;5128512;27;20055;-63
2021/11/18 02:42:57;;;;;;;26.67;5.60;;;8.00;99.90;;;;;;5129425;27;20118;-63
2021/11/18 02:45:29;;;;;;;22.92;6.20;;;8.00;99.90;;;;;;5148190;27;20043;-63
2021/11/18 02:47:56;;;;;;;29.98;5.75;;;8.00;99.90;;;;;;5147529;27;20099;-63
2021/11/18 02:50:25;;;;;;;22.58;6.30;;;8.00;99.90;;;;;;5147865;27;20040;-63
2021/11/18 02:52:50;;;;;;;24.65;6.70;;;8.10;99.90;;;;;;5129693;27;20043;-63
2021/11/18 02:55:23;;;;;;;20.67;6.13;;;8.10;99.90;;;;;;5147903;27;20035;-63
2021/11/18 02:57:49;;;;;;;24.73;6.80;;;8.20;99.90;;;;;;5128550;27;20502;-63
2021/11/18 03:00:19;;;;;;;21.33;5.93;;;8.10;99.90;;;;;;5129021;27;20047;-63
2021/11/18 03:02:45;;;;;;;;;;;8.10;99.90;;;;;;5129433;27;20054;-63
2021/11/18 03:05:11;;;;;;;24.75;6.65;;;8.20;99.90;;;;;;5147403;27;19926;-63
2021/11/18 03:07:38;;;;;;;21.25;5.55;;;8.10;99.90;;;;;;5128395;27;20099;-63
2021/11/18 03:10:07;;;;;;;17.67;6.20;;;8.10;99.90;;;;;;5146786;27;20035;-63
2021/11/18 03:12:33;;;;;;;27.63;5.87;;;8.10;99.90;;;;;;5128512;27;20103;-63
2021/11/18 03:14:58;;;;;;;28.38;7.18;;;8.20;99.90;;;;;;5115026;27;20095;-63
2021/11/18 03:17:24;;;;;;;26.88;6.50;;;8.20;99.90;;;;;;5129083;27;20051;-63
2021/11/18 03:19:50;;;;;;;27.15;6.57;;;8.30;99.90;;;;;;5129236;27;20042;-63
2021/11/18 03:22:16;;;;;;;26.13;6.43;;;8.20;99.90;;;;;;5148075;27;20088;-63
2021/11/18 03:24:42;;;;;;;20.83;6.85;;;8.30;99.90;;;;;;5146748;27;20054;-63
2021/11/18 03:27:07;;;;;;;20.38;5.82;;;8.20;99.90;;;;;;5128488;27;20074;-63
2021/11/18 03:29:33;;;;;;;23.35;6.32;;;8.20;99.90;;;;;;5128504;27;20039;-63
2021/11/18 03:31:59;;;;;;;21.17;7.05;;;8.20;99.90;;;;;;5128241;27;20075;-63
2021/11/18 03:34:29;;;;;;;24.20;7.57;;;8.10;99.90;;;;;;5128778;27;20114;-63
2021/11/18 03:36:55;;;;;;;22.02;6.38;;;8.10;99.90;;;;;;5147000;27;20043;-63
2021/11/18 03:39:22;;;;;;;20.23;6.78;;;8.20;99.90;;;;;;5127488;27;20040;-63
2021/11/18 03:41:53;;;;;;;28.98;7.72;;;8.10;99.90;;;;;;5128623;27;20054;-63
2021/11/18 03:44:20;;;;;;;23.00;6.65;;;8.10;99.90;;;;;;5146018;27;20055;-63
2021/11/18 03:46:51;;;;;;;26.05;6.97;;;8.20;99.90;;;;;;5146055;27;20053;-63
2021/11/18 03:49:18;;;;;;;21.73;7.25;;;8.20;99.90;;;;;;5127583;27;20043;-63
2021/11/18 03:51:46;;;;;;;20.27;5.72;;;8.10;99.90;;;;;;5146177;27;20073;-63
2021/11/18 03:54:14;;;;;;;22.23;7.47;;;8.20;99.90;;;;;;5146307;27;20039;-62
2021/11/18 03:56:41;;;;;;;26.15;7.85;;;8.10;99.90;;;;;;5147349;27;20043;-63
2021/11/18 03:59:12;;;;;;;26.02;7.13;;;8.10;99.90;;;;;;5127803;27;20054;-63
2021/11/18 04:01:38;;;;;;;23.92;6.93;;;8.10;99.90;;;;;;5127628;27;20047;-63
2021/11/18 04:04:07;;;;;;;22.98;7.03;;;8.10;99.90;;;;;;5146118;27;20042;-63
2021/11/18 04:06:33;;;;;;;30.67;7.03;;;8.10;99.90;;;;;;5127240;27;20075;-63
2021/11/18 04:08:59;;;;;;;22.27;6.88;;;8.10;99.90;;;;;;5127270;27;20039;-63
2021/11/18 04:11:26;;;;;;;23.80;6.78;;;8.10;99.90;;;;;;5147306;27;20063;-63
2021/11/18 04:13:52;;;;;;;29.70;7.22;;;8.20;99.90;;;;;;5128401;27;20039;-63
2021/11/18 04:16:18;;;;;;;28.63;6.63;;;8.10;99.90;;;;;;5128320;27;20110;-63
2021/11/18 04:18:44;;;;;;;24.90;6.75;;;8.20;99.90;;;;;;5128224;27;20039;-63
2021/11/18 04:21:10;;;;;;;26.50;6.88;;;8.10;99.90;;;;;;5146784;27;20047;-63
2021/11/18 04:23:36;;;;;;;24.10;6.45;;;8.20;99.90;;;;;;5147005;27;20098;-63
2021/11/18 04:26:04;;;;;;;25.17;6.65;;;8.20;99.90;;;;;;5146643;27;20498;-63
2021/11/18 04:28:30;;;;;;;21.45;6.00;;;8.20;99.90;;;;;;5127712;27;20047;-63
2021/11/18 04:31:17;;;;;;;22.88;6.97;;;8.20;99.90;;;;;;5146651;27;20223;-63
2021/11/18 04:33:43;;;;;;;18.48;5.57;;;8.20;99.90;;;;;;5127117;27;20075;-63
2021/11/18 04:36:12;;;;;;;25.73;6.22;;;8.20;99.90;;;;;;5126893;27;20047;-63
2021/11/18 04:38:38;;;;;;;20.92;5.75;;;8.20;99.90;;;;;;5127031;27;20047;-63
2021/11/18 04:41:05;;;;;;;24.90;6.65;;;8.20;99.90;;;;;;5127392;28;20050;-63
2021/11/18 04:43:31;;;;;;;24.30;6.45;;;8.20;99.90;;;;;;5126422;27;20069;-63
2021/11/18 04:45:57;;;;;;;28.17;6.90;;;8.20;99.90;;;;;;5126560;28;20055;-63
2021/11/18 04:48:23;;;;;;;21.65;5.60;;;8.20;99.90;;;;;;5144994;28;20039;-63
2021/11/18 04:50:50;;;;;;;21.60;6.88;;;8.10;99.90;;;;;;5146389;28;20073;-63
2021/11/18 04:53:17;;;;;;;20.58;7.15;;;8.10;99.90;;;;;;5128176;28;20123;-63
2021/11/18 04:55:44;;;;;;;26.92;7.00;;;8.20;99.90;;;;;;5110265;28;20058;-63
2021/11/18 04:58:11;;;;;;;25.00;6.78;;;8.20;99.90;;;;;;5126602;28;20050;-63
2021/11/18 05:00:47;;;;;;;18.45;6.57;;;8.20;99.90;;;;;;5127815;28;20102;-63
2021/11/18 05:03:14;;;;;;;30.40;7.30;;;8.20;99.90;;;;;;5126871;28;20035;-63
2021/11/18 05:05:40;;;;;;;21.25;6.10;;;8.20;99.90;;;;;;5126905;28;20046;-63
2021/11/18 05:08:06;;;;;;;15.55;6.63;;;8.20;99.90;;;;;;5127064;28;20051;-63
2021/11/18 05:10:33;;;;;;;20.65;6.20;;;8.20;99.90;;;;;;5127083;28;20047;-63
2021/11/18 05:12:59;;;;;;;29.92;6.60;;;8.20;99.90;;;;;;5127977;28;20092;-63
2021/11/18 05:15:28;;;;;;;25.50;6.40;;;8.20;99.90;;;;;;5127621;28;20051;-63
2021/11/18 05:17:54;;;;;;;23.02;6.13;;;8.20;99.90;;;;;;5149159;27;20050;-63
2021/11/18 05:20:22;;;;;;;26.00;7.25;;;8.10;99.90;;;;;;5130428;27;20047;-63
2021/11/18 05:22:49;;;;;;;22.35;6.68;;;8.10;99.90;;;;;;5149228;27;20094;-63
2021/11/18 05:25:17;;;;;;;24.08;6.90;;;8.10;99.90;;;;;;5130322;27;20112;-63
2021/11/18 05:27:43;;;;;;;20.88;5.95;;;8.10;99.90;;;;;;5127769;27;20058;-63
2021/11/18 05:30:14;;;;;;;20.33;6.22;;;8.20;99.90;;;;;;5130938;27;20059;-63
2021/11/18 05:32:41;;;;;;;28.23;6.43;;;8.20;99.90;;;;;;5148829;27;20088;-63
2021/11/18 05:35:07;;;;;;;23.63;6.50;;;8.20;99.90;;;;;;5139791;27;20051;-63
2021/11/18 05:37:33;;;;;;;22.25;6.25;;;8.10;99.90;;;;;;5112903;27;20143;-63
2021/11/18 05:39:59;;;;;;;27.55;6.97;;;8.10;99.90;;;;;;5148283;27;20059;-63
2021/11/18 05:42:25;;;;;;;17.33;5.57;;;8.10;99.90;;;;;;5146981;27;20035;-63
2021/11/18 05:44:51;;;;;;;24.80;7.13;;;8.10;99.90;;;;;;5149681;27;20083;-65
2021/11/18 05:47:19;;;;;;;26.90;6.80;;;8.10;99.90;;;;;;5147419;27;20051;-63
2021/11/18 05:49:45;;;;;;;27.92;7.32;;;8.10;99.90;;;;;;5104094;27;20057;-63
2021/11/18 05:52:11;;;;;;;23.95;6.45;;;8.10;99.90;;;;;;5074723;28;20051;-64
2021/11/18 05:54:37;;;;;;;24.48;6.75;;;8.10;99.90;;;;;;5104634;27;20061;-63
2021/11/18 05:57:03;;;;;;;24.88;6.25;;;8.10;99.90;;;;;;5139996;27;20047;-63
2021/11/18 05:59:30;;;;;;;25.05;7.28;;;8.10;99.90;;;;;;5113253;27;20051;-65
2021/11/18 06:01:55;;;;;;;24.75;7.32;;;8.10;99.90;;;;;;5140790;27;20042;-64
2021/11/18 06:04:21;;;;;;;26.48;7.10;;;8.10;99.90;;;;;;5111928;27;20043;-64
2021/11/18 06:06:47;;;;;;;20.27;6.78;;;8.10;99.90;;;;;;5103733;27;20043;-64
2021/11/18 06:09:13;;;;;;;21.08;5.65;;;8.10;99.90;;;;;;5112191;27;20047;-64
2021/11/18 06:11:41;;;;;;;26.42;7.03;;;8.20;99.90;;;;;;5140575;27;20035;-64
2021/11/18 06:14:07;;;;;;;23.90;5.90;;;8.20;99.90;;;;;;5113275;27;20556;-63
2021/11/18 06:16:34;;;;;;;31.13;7.18;;;8.20;99.90;;;;;;5142954;27;20043;-63
2021/11/18 06:19:03;;;;;;;23.25;6.70;;;8.30;99.90;;;;;;5111830;27;20069;-63
2021/11/18 06:21:39;;;;;;;19.33;6.05;;;8.20;99.90;;;;;;5106096;27;20051;-63
2021/11/18 06:24:06;;;;;;;22.17;6.13;;;8.20;99.90;;;;;;5132131;27;20051;-63
2021/11/18 06:26:32;;;;;;;28.98;7.85;;;8.20;99.90;;;;;;5142433;27;20116;-63
2021/11/18 06:28:58;;;;;;;27.80;6.65;;;8.20;99.90;;;;;;5099987;27;20081;-65
2021/11/18 06:31:24;;;;;;;23.90;6.05;;;8.10;99.90;;;;;;5120655;27;20530;-65
2021/11/18 06:33:51;;;;;;;24.95;6.43;;;8.20;99.90;;;;;;5129371;27;20455;-64
2021/11/18 06:36:18;;;;;;;19.15;6.22;;;8.20;99.90;;;;;;5117196;27;20043;-66
2021/11/18 06:38:46;;;;;;;19.77;6.03;;;8.10;99.90;;;;;;5118464;27;20052;-65
2021/11/18 06:41:15;;;;;;;23.45;6.93;;;8.10;99.90;;;;;;5124286;27;20122;-63
2021/11/18 06:43:42;;;;;;;24.88;6.32;;;8.10;99.90;;;;;;5112006;27;20051;-64
2021/11/18 06:46:07;;;;;;;23.88;6.07;;;8.20;99.90;;;;;;5123119;27;20521;-63
2021/11/18 06:48:34;;;;;;;19.83;6.38;;;8.20;99.90;;;;;;5111477;27;20044;-63
2021/11/18 06:51:06;;;;;;;27.85;7.05;;;8.10;99.90;;;;;;5122923;27;20054;-63
2021/11/18 06:53:33;;;;;;;23.08;6.18;;;8.10;99.90;;;;;;5129896;27;20134;-63
2021/11/18 06:55:59;;;;;;;30.13;7.05;;;8.10;99.90;;;;;;5133650;27;20057;-65
2021/11/18 06:58:24;;;;;;;24.42;7.05;;;8.10;99.90;;;;;;5110612;27;20534;-66
2021/11/18 07:00:51;;;;;;;20.77;6.18;;;8.20;99.90;;;;;;5122587;27;20073;-66
2021/11/18 07:03:16;;;;;;;25.02;6.55;;;8.20;99.90;;;;;;5139266;27;20051;-66
2021/11/18 07:05:42;;;;;;;26.58;6.43;;;8.30;99.90;;;;;;5111037;27;20111;-65
2021/11/18 07:08:09;;;;;;;26.33;6.68;;;8.20;99.90;;;;;;5120346;27;20054;-65
2021/11/18 07:10:38;;;;;;;19.20;5.43;;;8.30;99.90;;;;;;5078377;27;20720;-64
2021/11/18 07:13:04;;;;;;;22.98;7.35;;;8.20;99.90;;;;;;5121251;27;20039;-65
2021/11/18 07:15:30;;;;;;;20.15;5.50;;;8.20;99.90;;;;;;5112835;27;20039;-64
2021/11/18 07:17:57;;;;;;;24.85;6.20;;;8.30;99.90;;;;;;5121343;27;20039;-65
2021/11/18 07:20:25;;;;;;;21.95;6.38;;;8.20;99.90;;;;;;5108868;27;20558;-64
2021/11/18 07:22:52;;;;;;;21.63;5.75;;;8.20;99.90;;;;;;5112855;28;20071;-64
2021/11/18 07:25:21;;;;;;;28.98;6.65;;;8.20;99.90;;;;;;5093493;27;20051;-64
2021/11/18 07:27:48;;;;;;;21.20;5.85;;;8.30;99.90;;;;;;5111703;27;20103;-64
2021/11/18 07:30:15;;;;;;;19.67;6.28;;;8.30;99.90;;;;;;5099334;28;20054;-64
2021/11/18 07:32:41;;;;;;;25.80;6.15;;;8.30;99.90;;;;;;5120500;27;20048;-64
2021/11/18 07:35:08;;;;;;;17.15;5.47;;;8.30;99.90;;;;;;5112729;27;20139;-64
2021/11/18 07:37:34;;;;;;;24.52;6.35;;;8.20;99.90;;;;;;5109100;27;20047;-64
2021/11/18 07:40:00;;;;;;;25.52;6.55;;;8.30;99.90;;;;;;5101614;28;20459;-64
2021/11/18 07:42:26;;;;;;;20.58;5.63;;;8.30;99.90;;;;;;5119377;27;20114;-65
2021/11/18 07:44:51;;;;;;;27.25;5.47;;;8.30;99.90;;;;;;5110094;27;20047;-64
2021/11/18 07:47:17;;;;;;;21.30;5.22;;;8.30;99.90;;;;;;5120328;27;20134;-64
2021/11/18 07:49:43;;;;;;;26.10;6.40;;;8.40;99.90;;;;;;5110059;27;20047;-65
2021/11/18 07:52:09;;;;;;;26.50;6.38;;;8.40;99.90;;;;;;5120911;27;20051;-64
2021/11/18 07:54:35;;;;;;;26.92;5.40;;;8.40;99.90;;;;;;5128074;27;20100;-65
2021/11/18 07:57:01;;;;;;;21.40;5.82;;;8.50;99.90;;;;;;5138383;27;20055;-64
2021/11/18 07:59:28;;;;;;;23.77;5.70;;;8.40;99.90;;;;;;5102088;28;20055;-65
2021/11/18 08:01:54;;;;;;;23.05;6.60;;;8.40;99.90;;;;;;5113684;27;20031;-65
2021/11/18 08:04:20;;;;;;;23.85;5.40;;;8.40;99.90;;;;;;5110001;27;20059;-64
2021/11/18 08:06:46;;;;;;;25.77;5.75;;;8.40;99.90;;;;;;5137313;27;20327;-65
2021/11/18 08:09:13;;;;;;;20.58;5.07;;;8.40;99.90;;;;;;5109731;27;20043;-65
2021/11/18 08:11:45;;;;;;;26.17;7.18;;;8.40;99.90;;;;;;5119609;27;20080;-64
2021/11/18 08:14:14;;;;;;;26.52;6.90;;;8.50;99.90;;;;;;5127097;27;20077;-65
2021/11/18 08:16:41;;;;;;;24.45;6.43;;;8.40;99.90;;;;;;5119272;27;20062;-65
2021/11/18 08:19:07;;;;;;;16.92;6.05;;;8.40;99.90;;;;;;5109380;27;20079;-64
2021/11/18 08:21:35;;;;;;;27.63;6.43;;;8.40;99.90;;;;;;5118867;27;20137;-64
2021/11/18 08:24:03;;;;;;;23.95;6.00;;;8.50;99.90;;;;;;5110684;27;20050;-64
2021/11/18 08:26:29;;;;;;;23.80;5.55;;;8.50;99.90;;;;;;5119212;27;20046;-64
2021/11/18 08:28:55;;;;;;;27.63;7.22;;;8.50;99.90;;;;;;5102404;28;20609;-65
2021/11/18 08:31:21;;;;;;;18.60;5.78;;;8.60;99.90;;;;;;5102413;27;20043;-64
2021/11/18 08:33:47;;;;;;;20.17;6.22;;;8.70;99.90;;;;;;5128057;27;20039;-65
2021/11/18 08:36:13;;;;;;;24.80;6.07;;;8.70;99.90;;;;;;5106441;27;20078;-64
2021/11/18 08:38:41;;;;;;;18.25;5.70;;;8.70;99.90;;;;;;5120894;27;20039;-65
2021/11/18 08:41:08;;;;;;;20.42;5.78;;;8.70;99.90;;;;;;5101769;27;20125;-64
2021/11/18 08:43:37;;;;;;;19.55;5.68;;;8.70;99.90;;;;;;5138932;27;20047;-65
2021/11/18 08:46:05;;;;;;;19.90;5.95;;;8.70;99.90;;;;;;5111855;27;20100;-65
2021/11/18 08:48:31;;;;;;;21.65;5.25;;;8.70;99.90;;;;;;5122179;28;20049;-65
2021/11/18 08:50:57;;;;;;;25.30;6.07;;;8.80;99.90;;;;;;5128327;27;20423;-63
2021/11/18 08:53:26;;;;;;;16.52;5.50;;;8.70;99.90;;;;;;5120441;28;20084;-63
2021/11/18 08:55:53;;;;;;;24.00;5.75;;;8.80;99.90;;;;;;5125704;28;20039;-65
2021/11/18 08:58:22;;;;;;;20.80;5.53;;;8.80;99.90;;;;;;5118839;28;20065;-65
2021/11/18 09:01:00;;;;;;;15.15;5.10;;;8.80;99.90;;;;;;5127514;28;20051;-65
2021/11/18 09:03:29;;;;;;;23.23;6.18;;;8.80;99.90;;;;;;5139661;28;20085;-65
2021/11/18 09:05:56;;;;;;;21.00;5.32;;;8.90;99.90;;;;;;5110138;28;20078;-66
2021/11/18 09:08:23;;;;;;;17.70;6.00;;;8.90;99.90;;;;;;5119138;28;20055;-66
2021/11/18 09:10:49;;;;;;;18.95;5.53;;;8.90;99.90;;;;;;5127163;28;20047;-66
2021/11/18 09:13:16;;;;;;;23.98;6.47;;;8.90;99.90;;;;;;5118941;28;20230;-66
2021/11/18 09:15:43;;;;;;;22.98;6.07;;;8.90;99.90;;;;;;5079076;28;20150;-66
2021/11/18 09:18:10;;;;;;;21.00;6.40;;;9.10;99.90;;;;;;5118906;28;20128;-66
2021/11/18 09:20:37;;;;;;;19.90;6.30;;;9.10;99.90;;;;;;5108677;28;20582;-66
2021/11/18 09:23:05;;;;;;;23.95;6.75;;;9.10;99.90;;;;;;5119678;28;20398;-66
2021/11/18 09:25:35;;;;;;;19.58;6.68;;;9.10;99.90;;;;;;5109626;28;20384;-65
2021/11/18 09:28:01;;;;;;;17.25;5.53;;;9.20;99.90;;;;;;5137310;28;20046;-66
2021/11/18 09:30:36;;;;;;;17.80;6.10;;;9.20;99.90;;;;;;5101562;28;20054;-66
2021/11/18 09:33:03;;;;;;;19.55;6.57;;;9.20;99.90;;;;;;5121569;28;20281;-65
2021/11/18 09:35:50;;;;;;;19.20;5.68;;;9.30;99.90;;;;;;5112700;28;20075;-66
2021/11/18 09:38:18;;;;;;;21.95;5.50;;;9.20;99.90;;;;;;5126166;28;20331;-64
2021/11/18 09:41:00;;;;;;;18.92;5.63;;;9.30;99.90;;;;;;5125547;28;20067;-64
2021/11/18 09:43:35;;;;;;;17.48;5.68;;;9.30;99.90;;;;;;5135470;28;20039;-64
2021/11/18 09:46:19;;;;;;;19.38;5.20;;;9.40;99.90;;;;;;5108617;28;20055;-64
2021/11/18 09:49:04;;;;;;;20.05;6.35;;;9.40;99.90;;;;;;5118666;28;20032;-64
2021/11/18 09:52:08;;;;;;;30.65;7.03;;;9.40;99.90;;;;;;5074190;28;20067;-64
2021/11/18 09:55:09;;;;;;;24.45;5.97;;;9.40;99.90;;;;;;5090334;28;20579;-64
2021/11/18 09:58:10;;;;;;;17.45;4.82;;;9.70;99.90;;;;;;5036991;28;20464;-64
2021/11/18 10:00:45;;;;;;;21.70;5.72;;;9.80;99.90;;;;;;5032261;28;20164;-64
2021/11/18 10:03:32;;;;;;;24.65;5.18;;;9.90;99.90;;;;;;5037745;28;20389;-64
2021/11/18 10:06:34;;;;;;;18.42;5.60;;;9.90;99.90;;;;;;5036279;28;20060;-64
2021/11/18 10:09:12;;;;;;;21.48;5.50;;;10.10;99.90;;;;;;5010282;28;20046;-65
2021/11/18 10:11:59;;;;;;;18.77;5.28;;;10.20;99.90;;;;;;5036859;28;20053;-64
2021/11/18 10:14:24;;;;;;;20.88;4.63;;;10.20;99.90;;;;;;5031736;28;20056;-64
2021/11/18 10:16:57;;;;;;;22.60;5.32;;;10.20;99.90;;;;;;5042022;28;20052;-64
2021/11/18 10:19:32;;;;;;;27.15;6.45;;;10.30;99.90;;;;;;5029500;28;20684;-64
2021/11/18 10:22:00;;;;;;;24.73;4.40;;;10.40;99.90;;;;;;5057020;28;20040;-64
2021/11/18 10:24:28;;;;;;;21.42;6.32;;;10.40;99.90;;;;;;5028041;28;20370;-64
2021/11/18 10:27:00;;;;;;;17.50;4.72;;;10.50;99.90;;;;;;5035821;28;20061;-64
2021/11/18 10:29:32;;;;;;;17.08;5.15;;;10.50;99.90;;;;;;5041281;28;20100;-64
2021/11/18 10:32:09;;;;;;;18.80;4.72;;;10.60;99.90;;;;;;5045626;28;20045;-64
2021/11/18 10:34:49;;;;;;;23.13;5.18;;;10.70;99.90;;;;;;5105246;28;20188;-65
2021/11/18 10:37:32;;;;;;;18.10;4.63;;;10.80;99.90;;;;;;5108477;28;20047;-64
2021/11/18 10:40:29;;;;;;;15.48;4.00;;;10.90;99.90;;;;;;5106450;28;20047;-64
2021/11/18 10:43:13;;;;;;;16.95;4.20;;;11.00;99.90;;;;;;5034595;28;20041;-64
2021/11/18 10:46:00;;;;;;;16.23;3.67;;;11.10;99.90;;;;;;5045085;28;20663;-64
2021/11/18 10:48:37;;;;;;;21.92;3.88;;;11.30;99.90;;;;;;5054446;28;20103;-65
2021/11/18 10:51:31;;;;;;;18.70;3.47;;;11.40;99.90;;;;;;5045454;28;20060;-64
2021/11/18 10:53:59;;;;;;;19.92;4.63;;;11.40;99.90;;;;;;5053132;28;20057;-64
2021/11/18 10:57:05;;;;;;;18.25;3.75;;;11.50;99.90;;;;;;5029811;28;20040;-65
2021/11/18 10:59:38;;;;;;;17.58;4.15;;;11.50;99.90;;;;;;5046422;28;20147;-64
2021/11/18 11:02:24;;;;;;;17.92;4.20;;;11.60;99.90;;;;;;5039121;28;20057;-64
2021/11/18 11:04:56;;;;;;;23.35;4.25;;;11.60;99.90;;;;;;5046470;28;20076;-64
2021/11/18 11:07:40;;;;;;;16.48;4.00;;;11.70;99.90;;;;;;5038977;28;20074;-64
2021/11/18 11:10:18;;;;;;;19.90;4.18;;;11.80;99.90;;;;;;5028185;28;20063;-64
2021/11/18 11:12:52;;;;;;;20.55;5.18;;;11.70;99.90;;;;;;5056253;28;20068;-64
2021/11/18 11:15:40;;;;;;;19.88;4.82;;;11.60;99.90;;;;;;5047545;28;20212;-64
2021/11/18 11:18:09;;;;;;;20.13;4.70;;;11.80;99.90;;;;;;5066193;27;20066;-65
2021/11/18 11:21:11;;;;;;;20.90;4.60;;;11.70;99.90;;;;;;5110162;27;20076;-64
2021/11/18 11:23:49;;;;;;;20.85;3.95;;;11.70;99.90;;;;;;5120580;27;20050;-65
2021/11/18 11:26:42;;;;;;;15.82;3.42;;;11.70;99.90;;;;;;5090221;28;20051;-64
2021/11/18 11:29:27;;;;;;;21.60;3.90;;;11.70;99.90;;;;;;5091697;28;20056;-65
2021/11/18 11:32:22;;;;;;;20.95;4.00;;;11.70;99.90;;;;;;5074111;28;20524;-65
2021/11/18 11:35:06;;;;;;;17.77;4.95;;;11.70;99.90;;;;;;5107984;28;20192;-64
2021/11/18 11:37:46;;;;;;;20.48;4.30;;;11.50;99.90;;;;;;5114204;28;20044;-65
2021/11/18 11:40:37;;;;;;;18.02;3.75;;;11.60;99.90;;;;;;5103836;28;20055;-65
2021/11/18 11:43:21;;;;;;;20.35;5.40;;;11.70;99.90;;;;;;5100424;28;20046;-65
2021/11/18 11:45:57;;;;;;;23.58;3.92;;;11.60;99.90;;;;;;5106879;28;20080;-64
2021/11/18 11:48:48;;;;;;;22.40;3.88;;;11.50;99.90;;;;;;5098576;28;20062;-65
2021/11/18 11:51:38;;;;;;;24.42;5.18;;;11.50;99.90;;;;;;5072630;28;20055;-64
2021/11/18 11:54:33;;;;;;;19.63;4.82;;;11.50;99.90;;;;;;5081537;28;20079;-65
2021/11/18 11:57:23;;;;;;;15.48;3.83;;;11.50;99.90;;;;;;5070997;28;20367;-65
2021/11/18 12:00:09;;;;;;;;;;;11.50;99.90;;;;;;5109586;28;20055;-65
2021/11/18 12:03:15;;;;;;;22.52;4.47;;;11.60;99.90;;;;;;5101065;28;19972;-64
2021/11/18 12:06:09;;;;;;;23.80;5.07;;;11.60;99.90;;;;;;4980495;28;20078;-65
2021/11/18 12:08:44;;;;;;;16.65;4.80;;;11.50;99.90;;;;;;4987870;28;20045;-66
2021/11/18 12:11:13;;;;;;;21.42;5.00;;;11.60;99.90;;;;;;4984814;28;20145;-66
2021/11/18 12:13:59;;;;;;;18.05;4.68;;;11.50;99.90;;;;;;4980333;28;20056;-65
2021/11/18 12:16:47;;;;;;;18.42;4.60;;;11.50;99.90;;;;;;4985159;28;20093;-66
2021/11/18 12:19:18;;;;;;;18.63;4.35;;;11.50;99.90;;;;;;4978799;28;20150;-64
2021/11/18 12:21:45;;;;;;;23.63;4.82;;;11.60;99.90;;;;;;4968323;28;20483;-64
2021/11/18 12:24:12;;;;;;;19.02;5.03;;;11.50;99.90;;;;;;4977857;28;20184;-64
2021/11/18 12:27:00;;;;;;;15.85;4.80;;;11.50;99.90;;;;;;4982337;28;20052;-64
2021/11/18 12:29:47;;;;;;;17.15;5.15;;;11.50;99.90;;;;;;4986399;28;20078;-64
2021/11/18 12:32:29;;;;;;;21.10;5.38;;;11.40;99.90;;;;;;4974835;28;20054;-65
2021/11/18 12:35:09;;;;;;;22.60;4.93;;;11.50;99.90;;;;;;4975860;28;20050;-64
2021/11/18 12:37:57;;;;;;;17.73;5.43;;;11.40;99.90;;;;;;4988846;28;20045;-64
2021/11/18 12:40:46;;;;;;;17.83;5.28;;;11.40;99.90;;;;;;4994048;28;20043;-64
2021/11/18 12:43:49;;;;;;;18.83;4.53;;;11.30;99.90;;;;;;5077077;28;20142;-64
2021/11/18 12:46:51;;;;;;;20.23;5.90;;;11.40;99.90;;;;;;5090382;28;20055;-65
2021/11/18 12:49:20;;;;;;;25.98;5.40;;;11.40;99.90;;;;;;5101161;28;20081;-64
2021/11/18 12:52:09;;;;;;;17.75;4.90;;;11.40;99.90;;;;;;5091479;28;20407;-64
2021/11/18 12:54:46;;;;;;;19.38;5.20;;;11.40;99.90;;;;;;5089230;28;20406;-64
2021/11/18 12:57:43;;;;;;;22.48;5.78;;;11.40;99.90;;;;;;5101323;28;20130;-64
2021/11/18 13:00:16;;;;;;;22.02;5.38;;;11.40;99.90;;;;;;5090021;28;20052;-64
2021/11/18 13:02:44;;;;;;;21.33;4.78;;;11.40;99.90;;;;;;5093436;28;20075;-64
2021/11/18 13:05:10;;;;;;;21.35;5.68;;;11.50;99.90;;;;;;5088286;28;20055;-64